Time;durP1;ratioP1;P1;durP2;ratioP2;P2;SDS_P1;SDS_P2;PMS_P1;PMS_P2;Temp;Humidity;BMP_temperature;BMP_pressure;BME280_temperature;BME280_humidity;BME280_pressure;Samples;Min_cycle;Max_cycle;Signal;HPM_P1;HPM_P2
2024/01/16 00:00:05;;;;;;;26.67;24.95;;;;;;;;;;4957944;23;20114;-90
2024/01/16 00:02:34;;;;;;;29.02;27.08;;;;;;;;;;4869359;29;20045;-91
2024/01/16 00:05:03;;;;;;;31.52;29.63;;;;;;;;;;4847172;29;20090;-95
2024/01/16 00:07:42;;;;;;;32.03;30.02;;;;;;;;;;4846268;29;20380;-94
2024/01/16 00:10:14;;;;;;;28.20;26.33;;;;;;;;;;4845735;29;20026;-94
2024/01/16 00:12:44;;;;;;;33.17;31.08;;;;;;;;;;4845448;29;20037;-92
2024/01/16 00:15:18;;;;;;;34.22;32.05;;;;;;;;;;4845388;29;20112;-94
2024/01/16 00:17:44;;;;;;;32.00;29.60;;;;;;;;;;4845513;29;20033;-94
2024/01/16 00:20:13;;;;;;;28.55;26.80;;;;;;;;;;4845351;29;20025;-92
2024/01/16 00:22:43;;;;;;;31.73;29.73;;;;;;;;;;4845330;29;20131;-92
2024/01/16 00:25:12;;;;;;;34.30;32.28;;;;;;;;;;4845866;29;20045;-95
2024/01/16 00:27:42;;;;;;;31.33;29.38;;;;;;;;;;4845547;29;20531;-91
2024/01/16 00:30:11;;;;;;;37.53;35.22;;;;;;;;;;4845571;29;20048;-91
2024/01/16 00:32:40;;;;;;;32.05;30.10;;;;;;;;;;4845230;29;20101;-95
2024/01/16 00:38:13;;;;;;;39.13;36.63;;;;;;;;;;4862089;29;20044;-92
2024/01/16 00:40:42;;;;;;;35.63;33.28;;;;;;;;;;4845422;29;20025;-91
2024/01/16 00:43:08;;;;;;;33.67;31.60;;;;;;;;;;4845330;29;20501;-90
2024/01/16 00:45:34;;;;;;;34.65;32.47;;;;;;;;;;4846010;29;20030;-91
2024/01/16 00:48:00;;;;;;;37.10;34.83;;;;;;;;;;4845320;29;20116;-91
2024/01/16 00:50:27;;;;;;;33.20;31.20;;;;;;;;;;4845560;29;20037;-91
2024/01/16 00:52:53;;;;;;;33.42;31.42;;;;;;;;;;4845305;29;20536;-91
2024/01/16 00:55:19;;;;;;;34.03;31.92;;;;;;;;;;4845909;29;20052;-92
2024/01/16 00:57:45;;;;;;;35.95;33.70;;;;;;;;;;4845395;29;20033;-91
2024/01/16 01:00:11;;;;;;;34.55;32.45;;;;;;;;;;4845074;29;20550;-91
2024/01/16 01:02:38;;;;;;;32.33;30.33;;;;;;;;;;4845443;29;20052;-92
2024/01/16 01:05:04;;;;;;;30.98;29.10;;;;;;;;;;4845231;29;20030;-91
2024/01/16 01:07:30;;;;;;;33.15;31.20;;;;;;;;;;4845095;29;20483;-91
2024/01/16 01:09:56;;;;;;;33.92;31.77;;;;;;;;;;4845201;29;20065;-91
2024/01/16 01:12:25;;;;;;;35.00;32.90;;;;;;;;;;4845321;29;20041;-94
2024/01/16 01:18:06;;;;;;;28.20;26.40;;;;;;;;;;4880049;29;20120;-92
2024/01/16 01:20:32;;;;;;;32.50;30.58;;;;;;;;;;4863705;29;20149;-91
2024/01/16 01:23:07;;;;;;;28.13;26.42;;;;;;;;;;4863682;29;20025;-91
2024/01/16 01:25:36;;;;;;;33.83;31.75;;;;;;;;;;4863751;29;20033;-93
2024/01/16 01:28:04;;;;;;;28.67;26.88;;;;;;;;;;4862996;29;20104;-93
2024/01/16 01:30:31;;;;;;;33.30;30.90;;;;;;;;;;4863517;29;20036;-91
2024/01/16 01:32:57;;;;;;;33.38;31.00;;;;;;;;;;4865589;29;20033;-90
2024/01/16 01:35:23;;;;;;;34.00;31.77;;;;;;;;;;4867993;29;20145;-91
2024/01/16 01:37:49;;;;;;;34.03;31.98;;;;;;;;;;4867546;29;20547;-92
2024/01/16 01:40:15;;;;;;;29.13;27.27;;;;;;;;;;4867550;29;20033;-91
2024/01/16 01:42:43;;;;;;;37.97;35.67;;;;;;;;;;4873792;29;20020;-93
2024/01/16 01:45:12;;;;;;;33.17;30.95;;;;;;;;;;4960680;23;20066;-93
2024/01/16 01:47:44;;;;;;;32.40;30.40;;;;;;;;;;4891968;29;20032;-91
2024/01/16 01:50:11;;;;;;;29.70;27.75;;;;;;;;;;4885413;29;20061;-90
2024/01/16 01:52:39;;;;;;;34.65;31.95;;;;;;;;;;4885291;29;20032;-94
2024/01/16 01:55:06;;;;;;;31.05;28.98;;;;;;;;;;4884976;29;20028;-91
2024/01/16 01:57:36;;;;;;;32.05;29.95;;;;;;;;;;4885619;29;20024;-95
2024/01/16 02:00:04;;;;;;;30.27;27.67;;;;;;;;;;4885787;29;20037;-91
2024/01/16 02:02:31;;;;;;;28.98;26.80;;;;;;;;;;4885245;29;20037;-92
2024/01/16 02:04:57;;;;;;;34.30;32.05;;;;;;;;;;4884874;29;20500;-91
2024/01/16 02:07:24;;;;;;;31.85;29.83;;;;;;;;;;4884946;29;20067;-91
2024/01/16 02:09:50;;;;;;;32.58;30.25;;;;;;;;;;4884726;29;20029;-90
2024/01/16 02:12:16;;;;;;;30.13;27.98;;;;;;;;;;4884476;29;20040;-91
2024/01/16 02:14:42;;;;;;;29.33;27.40;;;;;;;;;;4884755;29;20077;-91
2024/01/16 02:17:08;;;;;;;34.35;32.13;;;;;;;;;;4884585;29;20103;-91
2024/01/16 02:19:35;;;;;;;35.20;32.90;;;;;;;;;;4884536;29;20025;-91
2024/01/16 02:22:03;;;;;;;29.20;27.30;;;;;;;;;;4884984;29;20127;-90
2024/01/16 02:24:29;;;;;;;34.25;32.13;;;;;;;;;;4884954;29;20119;-91
2024/01/16 02:26:56;;;;;;;28.52;26.52;;;;;;;;;;4884790;29;20043;-91
2024/01/16 02:29:22;;;;;;;33.30;31.00;;;;;;;;;;4884698;29;20040;-92
2024/01/16 02:31:48;;;;;;;32.90;30.85;;;;;;;;;;4888870;29;20029;-90
2024/01/16 02:34:14;;;;;;;31.30;29.30;;;;;;;;;;4904354;29;20052;-91
2024/01/16 02:36:40;;;;;;;35.17;32.95;;;;;;;;;;4906217;29;20032;-91
2024/01/16 02:39:06;;;;;;;33.58;31.02;;;;;;;;;;4903161;29;20032;-91
2024/01/16 02:41:32;;;;;;;31.02;28.92;;;;;;;;;;4902680;29;20086;-91
2024/01/16 02:43:58;;;;;;;34.90;32.50;;;;;;;;;;4902553;29;20055;-90
2024/01/16 02:46:25;;;;;;;31.13;29.13;;;;;;;;;;4902919;29;20528;-91
2024/01/16 02:48:51;;;;;;;34.83;32.38;;;;;;;;;;4902904;29;20119;-91
2024/01/16 02:51:17;;;;;;;33.90;31.80;;;;;;;;;;4903034;29;20032;-90
2024/01/16 02:53:43;;;;;;;29.30;27.40;;;;;;;;;;4902850;29;20104;-91
2024/01/16 02:56:09;;;;;;;33.78;30.83;;;;;;;;;;4902538;29;20059;-90
2024/01/16 02:58:35;;;;;;;37.42;34.83;;;;;;;;;;4902708;29;20036;-91
2024/01/16 03:01:02;;;;;;;31.90;29.90;;;;;;;;;;4902959;29;20024;-91
2024/01/16 03:03:28;;;;;;;33.42;31.33;;;;;;;;;;4902584;29;20032;-90
2024/01/16 03:05:55;;;;;;;29.42;27.55;;;;;;;;;;4902864;29;20060;-91
2024/01/16 03:08:22;;;;;;;33.53;31.15;;;;;;;;;;4902575;29;20033;-92
2024/01/16 03:10:48;;;;;;;30.65;28.65;;;;;;;;;;4902989;29;20028;-91
2024/01/16 03:13:14;;;;;;;28.95;27.05;;;;;;;;;;4902860;29;20052;-91
2024/01/16 03:15:43;;;;;;;30.85;28.90;;;;;;;;;;4903003;29;20474;-91
2024/01/16 03:18:09;;;;;;;31.00;29.02;;;;;;;;;;4902992;29;20044;-91
2024/01/16 03:20:36;;;;;;;30.52;28.63;;;;;;;;;;4902966;29;20107;-91
2024/01/16 03:23:02;;;;;;;33.67;31.48;;;;;;;;;;4903344;29;20036;-91
2024/01/16 03:25:28;;;;;;;30.25;28.33;;;;;;;;;;4919496;29;20021;-91
2024/01/16 03:27:54;;;;;;;31.45;29.48;;;;;;;;;;4926583;29;20024;-92
2024/01/16 03:30:20;;;;;;;29.10;27.05;;;;;;;;;;4906940;29;20066;-91
2024/01/16 03:32:46;;;;;;;24.15;22.58;;;;;;;;;;4901814;29;20036;-91
2024/01/16 03:35:12;;;;;;;29.30;27.45;;;;;;;;;;4901507;29;20028;-92
2024/01/16 03:37:47;;;;;;;27.38;25.52;;;;;;;;;;4901821;29;20147;-92
2024/01/16 03:40:13;;;;;;;26.38;23.95;;;;;;;;;;4892619;29;20043;-90
2024/01/16 03:42:39;;;;;;;24.67;22.98;;;;;;;;;;4900459;29;20055;-91
2024/01/16 03:45:06;;;;;;;24.73;23.13;;;;;;;;;;4901550;29;20052;-91
2024/01/16 03:47:32;;;;;;;24.85;23.15;;;;;;;;;;4900374;29;20040;-90
2024/01/16 03:49:58;;;;;;;25.83;24.08;;;;;;;;;;4901856;29;20024;-92
2024/01/16 03:52:24;;;;;;;23.90;22.25;;;;;;;;;;4902042;29;20032;-90
2024/01/16 03:54:51;;;;;;;22.55;20.92;;;;;;;;;;4901060;29;20043;-94
2024/01/16 03:57:17;;;;;;;25.08;23.48;;;;;;;;;;4901636;29;20048;-91
2024/01/16 03:59:43;;;;;;;22.83;20.92;;;;;;;;;;4901671;29;20028;-91
2024/01/16 04:02:09;;;;;;;22.73;21.27;;;;;;;;;;4901713;29;20067;-91
2024/01/16 04:04:35;;;;;;;24.35;22.85;;;;;;;;;;4901903;29;20042;-90
2024/01/16 04:07:01;;;;;;;18.48;17.08;;;;;;;;;;4901684;29;20095;-90
2024/01/16 04:09:27;;;;;;;21.50;20.20;;;;;;;;;;4901705;29;20039;-90
2024/01/16 04:11:53;;;;;;;22.58;21.05;;;;;;;;;;4902544;29;20024;-91
2024/01/16 04:14:19;;;;;;;21.40;20.02;;;;;;;;;;4901489;29;20036;-91
2024/01/16 04:16:46;;;;;;;21.58;20.08;;;;;;;;;;4902029;29;20035;-90
2024/01/16 04:19:12;;;;;;;23.05;21.50;;;;;;;;;;4901532;29;20046;-91
2024/01/16 04:21:38;;;;;;;19.23;17.77;;;;;;;;;;4901310;29;20032;-91
2024/01/16 04:24:04;;;;;;;21.27;19.70;;;;;;;;;;4901430;29;20408;-91
2024/01/16 04:26:30;;;;;;;24.73;22.92;;;;;;;;;;4901120;29;20131;-91
2024/01/16 04:28:57;;;;;;;24.83;22.17;;;;;;;;;;4901223;29;20473;-91
2024/01/16 04:31:23;;;;;;;21.70;20.20;;;;;;;;;;4901331;29;20032;-91
2024/01/16 04:33:49;;;;;;;19.42;17.67;;;;;;;;;;4901603;29;20075;-91
2024/01/16 04:36:15;;;;;;;28.02;21.67;;;;;;;;;;4901080;29;20042;-90
2024/01/16 04:38:41;;;;;;;20.52;18.92;;;;;;;;;;4902383;29;20036;-90
2024/01/16 04:41:07;;;;;;;24.13;22.17;;;;;;;;;;4901122;29;20024;-91
2024/01/16 04:43:33;;;;;;;21.85;19.77;;;;;;;;;;4900828;29;20055;-90
2024/01/16 04:46:00;;;;;;;22.27;20.65;;;;;;;;;;4901180;29;20481;-91
2024/01/16 04:48:26;;;;;;;20.88;19.35;;;;;;;;;;4900921;29;20032;-91
2024/01/16 04:50:52;;;;;;;23.63;21.98;;;;;;;;;;4900902;29;20031;-91
2024/01/16 04:53:18;;;;;;;22.45;20.92;;;;;;;;;;4900779;29;20051;-90
2024/01/16 04:55:44;;;;;;;22.85;21.15;;;;;;;;;;4900956;29;20032;-91
2024/01/16 04:58:13;;;;;;;22.00;20.48;;;;;;;;;;4901458;29;20486;-91
2024/01/16 05:00:42;;;;;;;20.02;18.42;;;;;;;;;;4918409;29;20027;-92
2024/01/16 05:03:11;;;;;;;20.67;19.13;;;;;;;;;;4901657;29;20557;-90
2024/01/16 05:05:46;;;;;;;19.83;18.45;;;;;;;;;;4901515;29;20036;-92
2024/01/16 05:08:12;;;;;;;25.30;23.20;;;;;;;;;;4924658;29;20035;-93
2024/01/16 05:10:41;;;;;;;20.60;18.90;;;;;;;;;;4928891;29;20013;-91
2024/01/16 05:13:07;;;;;;;21.45;19.90;;;;;;;;;;4904489;29;20032;-90
2024/01/16 05:15:36;;;;;;;21.10;19.50;;;;;;;;;;4904394;29;20032;-95
2024/01/16 05:18:13;;;;;;;20.25;18.75;;;;;;;;;;4904285;29;20024;-90
2024/01/16 05:20:40;;;;;;;21.73;20.17;;;;;;;;;;4905055;29;20087;-90
2024/01/16 05:23:06;;;;;;;19.20;17.80;;;;;;;;;;4904371;29;20099;-93
2024/01/16 05:25:32;;;;;;;21.90;20.25;;;;;;;;;;4904226;29;20030;-91
2024/01/16 05:27:59;;;;;;;20.10;18.35;;;;;;;;;;4904425;29;20084;-94
2024/01/16 05:30:25;;;;;;;20.02;18.20;;;;;;;;;;4904507;29;20033;-90
2024/01/16 05:32:52;;;;;;;16.98;15.60;;;;;;;;;;4904010;29;20063;-92
2024/01/16 05:35:18;;;;;;;19.23;17.60;;;;;;;;;;4904312;29;20067;-92
2024/01/16 05:37:44;;;;;;;19.65;18.30;;;;;;;;;;4903966;29;20036;-91
2024/01/16 05:40:13;;;;;;;19.25;17.67;;;;;;;;;;4903863;29;20028;-94
2024/01/16 05:42:39;;;;;;;18.13;16.70;;;;;;;;;;4904898;29;20028;-90
2024/01/16 05:45:05;;;;;;;18.88;17.55;;;;;;;;;;4903679;29;20056;-91
2024/01/16 05:47:32;;;;;;;18.83;17.42;;;;;;;;;;4903904;29;20079;-90
2024/01/16 05:49:58;;;;;;;21.75;20.13;;;;;;;;;;4903991;29;20032;-90
2024/01/16 05:52:24;;;;;;;19.17;17.70;;;;;;;;;;4903905;29;20043;-91
2024/01/16 05:54:50;;;;;;;19.35;17.98;;;;;;;;;;4903786;29;20064;-91
2024/01/16 05:57:16;;;;;;;18.88;17.38;;;;;;;;;;4903886;29;20079;-90
2024/01/16 05:59:42;;;;;;;20.67;19.25;;;;;;;;;;4904210;29;20473;-91
2024/01/16 06:02:14;;;;;;;22.40;20.73;;;;;;;;;;4903476;29;20028;-93
2024/01/16 06:04:40;;;;;;;20.48;19.08;;;;;;;;;;4904624;29;20499;-92
2024/01/16 06:07:07;;;;;;;20.48;18.55;;;;;;;;;;4903786;29;20024;-96
2024/01/16 06:09:42;;;;;;;18.60;17.02;;;;;;;;;;4903894;29;20036;-94
2024/01/16 06:12:09;;;;;;;18.33;16.70;;;;;;;;;;4903037;29;20050;-92
2024/01/16 06:15:00;;;;;;;20.02;18.60;;;;;;;;;;4903815;29;20119;-93
2024/01/16 06:17:26;;;;;;;20.42;18.88;;;;;;;;;;4902903;29;20529;-92
2024/01/16 06:20:02;;;;;;;21.42;19.98;;;;;;;;;;4903181;29;20032;-92
2024/01/16 06:22:31;;;;;;;19.05;17.67;;;;;;;;;;4903487;29;20072;-91
2024/01/16 06:25:07;;;;;;;19.45;18.05;;;;;;;;;;4903092;29;20028;-92
2024/01/16 06:27:59;;;;;;;20.52;19.02;;;;;;;;;;4903277;29;20111;-94
2024/01/16 06:30:31;;;;;;;20.27;18.85;;;;;;;;;;4903162;29;20043;-93
2024/01/16 06:36:24;;;;;;;15.95;14.75;;;;;;;;;;4920183;29;20092;-94
2024/01/16 06:42:06;;;;;;;18.88;17.13;;;;;;;;;;4862186;29;20100;-90
2024/01/16 06:45:17;;;;;;;17.75;16.42;;;;;;;;;;4898944;29;20056;-92
2024/01/16 06:47:43;;;;;;;18.95;17.27;;;;;;;;;;4903284;29;20036;-94
2024/01/16 06:50:09;;;;;;;18.65;17.27;;;;;;;;;;4904278;29;20100;-93
2024/01/16 06:52:44;;;;;;;19.30;17.85;;;;;;;;;;4926172;29;20032;-93
2024/01/16 06:55:16;;;;;;;20.05;18.65;;;;;;;;;;4923561;29;20032;-91
2024/01/16 06:57:42;;;;;;;18.55;17.15;;;;;;;;;;4902906;29;20024;-93
2024/01/16 07:00:19;;;;;;;20.48;18.70;;;;;;;;;;4902559;29;20034;-93
2024/01/16 07:03:09;;;;;;;19.95;18.27;;;;;;;;;;4902783;29;20127;-95
2024/01/16 07:05:49;;;;;;;19.02;17.40;;;;;;;;;;4903361;29;20549;-96
2024/01/16 07:08:15;;;;;;;19.30;17.83;;;;;;;;;;4903116;29;20040;-89
2024/01/16 07:10:41;;;;;;;19.23;17.55;;;;;;;;;;4902066;29;20036;-92
2024/01/16 07:13:07;;;;;;;21.02;19.42;;;;;;;;;;4901952;29;20122;-91
2024/01/16 07:15:33;;;;;;;22.63;21.15;;;;;;;;;;4903417;29;20071;-92
2024/01/16 07:17:59;;;;;;;24.38;22.52;;;;;;;;;;4903626;29;20024;-89
2024/01/16 07:20:28;;;;;;;31.33;29.42;;;;;;;;;;4902603;29;20123;-95
2024/01/16 07:23:35;;;;;;;36.10;33.88;;;;;;;;;;4902657;29;20028;-95
2024/01/16 07:26:02;;;;;;;32.90;30.60;;;;;;;;;;4902021;29;20028;-94
2024/01/16 07:28:29;;;;;;;29.15;27.38;;;;;;;;;;4901576;29;20138;-93
2024/01/16 07:31:11;;;;;;;35.38;33.17;;;;;;;;;;4901919;29;20028;-91
2024/01/16 07:33:40;;;;;;;29.58;27.60;;;;;;;;;;4901930;29;20103;-94
2024/01/16 07:36:07;;;;;;;29.92;27.95;;;;;;;;;;4902303;29;20028;-94
2024/01/16 07:38:39;;;;;;;29.17;27.35;;;;;;;;;;4902076;29;20127;-93
2024/01/16 07:41:11;;;;;;;32.60;30.27;;;;;;;;;;4901979;29;20028;-93
2024/01/16 07:43:40;;;;;;;27.52;25.73;;;;;;;;;;4901981;29;20029;-94
2024/01/16 07:46:13;;;;;;;28.38;26.42;;;;;;;;;;4903533;29;20052;-91
2024/01/16 07:48:39;;;;;;;21.83;20.03;;;;;;;;;;4901995;29;20127;-92
2024/01/16 07:51:05;;;;;;;19.00;17.80;;;;;;;;;;4901775;29;20059;-91
2024/01/16 07:53:35;;;;;;;13.32;12.20;;;;;;;;;;4901990;29;20050;-94
2024/01/16 07:56:22;;;;;;;14.43;13.43;;;;;;;;;;4901719;29;20028;-93
2024/01/16 07:59:03;;;;;;;13.35;12.15;;;;;;;;;;4901716;29;20024;-93
2024/01/16 08:01:37;;;;;;;11.70;10.73;;;;;;;;;;4902221;29;20601;-91
2024/01/16 08:04:27;;;;;;;12.18;11.27;;;;;;;;;;4901726;29;20029;-96
2024/01/16 08:06:53;;;;;;;11.23;9.68;;;;;;;;;;4918037;29;20111;-92
2024/01/16 08:09:20;;;;;;;11.35;8.40;;;;;;;;;;4899698;29;20038;-92
2024/01/16 08:11:46;;;;;;;9.30;8.40;;;;;;;;;;4896832;29;20044;-92
2024/01/16 08:14:12;;;;;;;8.75;7.95;;;;;;;;;;4901490;29;20573;-90
2024/01/16 08:16:41;;;;;;;8.27;7.57;;;;;;;;;;4901634;29;20466;-91
2024/01/16 08:19:19;;;;;;;8.60;7.75;;;;;;;;;;4901439;29;20032;-93
2024/01/16 08:21:45;;;;;;;8.15;7.20;;;;;;;;;;4901710;29;20032;-91
2024/01/16 08:24:14;;;;;;;8.50;7.60;;;;;;;;;;4901636;29;20119;-91
2024/01/16 08:26:46;;;;;;;7.55;6.82;;;;;;;;;;4901832;29;20084;-94
2024/01/16 08:29:38;;;;;;;7.43;6.82;;;;;;;;;;4902254;29;20030;-91
2024/01/16 08:32:16;;;;;;;7.82;7.13;;;;;;;;;;4902685;29;20029;-90
2024/01/16 08:34:53;;;;;;;8.55;7.82;;;;;;;;;;4895123;29;20047;-95
2024/01/16 08:37:26;;;;;;;7.68;7.07;;;;;;;;;;4908478;29;20027;-94
2024/01/16 08:39:55;;;;;;;7.68;6.72;;;;;;;;;;4925031;29;20100;-92
2024/01/16 08:42:21;;;;;;;7.85;7.25;;;;;;;;;;4927175;29;20024;-92
2024/01/16 08:44:59;;;;;;;6.65;6.15;;;;;;;;;;4903563;29;20139;-93
2024/01/16 08:50:35;;;;;;;7.93;6.57;;;;;;;;;;4900468;23;20062;-95
2024/01/16 08:53:07;;;;;;;6.97;6.47;;;;;;;;;;4848600;29;20479;-94
2024/01/16 08:58:28;;;;;;;7.18;6.03;;;;;;;;;;4867418;29;20112;-92
2024/01/16 09:00:54;;;;;;;6.10;5.47;;;;;;;;;;4864346;29;20037;-91
2024/01/16 09:03:20;;;;;;;7.05;6.40;;;;;;;;;;4863914;29;20027;-90
2024/01/16 09:05:51;;;;;;;10.73;5.82;;;;;;;;;;4865464;29;20041;-91
2024/01/16 09:08:17;;;;;;;7.05;5.22;;;;;;;;;;4859970;29;20089;-92
2024/01/16 09:10:57;;;;;;;8.65;5.75;;;;;;;;;;4845011;29;20117;-95
2024/01/16 09:13:31;;;;;;;6.63;6.03;;;;;;;;;;4845724;29;20072;-96
2024/01/16 09:15:57;;;;;;;6.60;5.32;;;;;;;;;;4844806;29;20061;-91
2024/01/16 09:18:26;;;;;;;6.07;5.35;;;;;;;;;;4845373;29;20061;-93
2024/01/16 09:20:58;;;;;;;9.18;5.75;;;;;;;;;;4844931;29;20436;-90
2024/01/16 09:23:33;;;;;;;8.02;6.28;;;;;;;;;;4845103;29;20034;-92
2024/01/16 09:25:59;;;;;;;7.00;6.25;;;;;;;;;;4845105;29;20109;-90
2024/01/16 09:28:28;;;;;;;6.35;5.60;;;;;;;;;;4845037;29;20037;-93
2024/01/16 09:31:10;;;;;;;;;;;;;;;;;;;;;
2024/01/16 09:33:37;;;;;;;7.35;5.78;;;;;;;;;;4861446;29;20044;-92
2024/01/16 09:36:03;;;;;;;7.50;5.45;;;;;;;;;;4844902;29;20030;-94
2024/01/16 09:38:31;;;;;;;7.50;5.20;;;;;;;;;;4846347;29;20029;-94
2024/01/16 09:41:07;;;;;;;5.03;4.40;;;;;;;;;;4862788;29;20146;-92
2024/01/16 09:43:34;;;;;;;5.43;4.25;;;;;;;;;;4845019;29;20436;-91
2024/01/16 09:46:10;;;;;;;5.85;4.78;;;;;;;;;;4844890;29;20033;-94
2024/01/16 09:48:40;;;;;;;5.53;4.78;;;;;;;;;;4847122;29;20046;-93
2024/01/16 09:51:17;;;;;;;6.45;4.20;;;;;;;;;;4863355;29;20037;-90
2024/01/16 09:53:49;;;;;;;5.03;4.40;;;;;;;;;;4864624;29;20079;-91
2024/01/16 09:56:24;;;;;;;4.25;3.63;;;;;;;;;;4853933;29;20373;-95
2024/01/16 09:59:10;;;;;;;3.88;3.42;;;;;;;;;;4847459;29;20045;-94
2024/01/16 10:01:39;;;;;;;5.53;3.97;;;;;;;;;;4847940;29;20083;-94
2024/01/16 10:04:14;;;;;;;4.20;3.80;;;;;;;;;;4864352;29;20025;-91
2024/01/16 10:06:49;;;;;;;5.53;4.70;;;;;;;;;;4847820;29;20124;-95
2024/01/16 10:09:16;;;;;;;5.03;3.58;;;;;;;;;;4848363;29;20407;-90
2024/01/16 10:11:45;;;;;;;4.97;4.45;;;;;;;;;;4847504;29;20418;-91
2024/01/16 10:14:12;;;;;;;5.97;4.25;;;;;;;;;;4847763;29;20033;-95
2024/01/16 10:17:05;;;;;;;6.07;5.45;;;;;;;;;;4848797;29;20120;-90
2024/01/16 10:19:34;;;;;;;7.85;5.97;;;;;;;;;;4859949;29;20155;-92
2024/01/16 10:22:06;;;;;;;7.18;6.60;;;;;;;;;;4883048;29;20037;-90
2024/01/16 10:24:47;;;;;;;7.38;6.75;;;;;;;;;;4864461;29;20044;-93
2024/01/16 10:27:16;;;;;;;7.22;6.63;;;;;;;;;;4871605;29;20021;-88
2024/01/16 10:29:56;;;;;;;6.18;5.57;;;;;;;;;;4851936;29;20101;-89
2024/01/16 10:32:48;;;;;;;6.43;5.82;;;;;;;;;;4846812;29;20034;-90
2024/01/16 10:35:17;;;;;;;7.07;6.47;;;;;;;;;;4847186;29;20567;-90
2024/01/16 10:37:55;;;;;;;6.35;5.65;;;;;;;;;;4847569;29;20034;-91
2024/01/16 10:40:29;;;;;;;6.97;6.38;;;;;;;;;;4847008;29;20037;-90
2024/01/16 10:43:07;;;;;;;8.52;5.95;;;;;;;;;;4858446;29;20048;-91
2024/01/16 10:45:55;;;;;;;5.95;5.38;;;;;;;;;;4865518;29;20040;-91
2024/01/16 10:48:26;;;;;;;5.80;5.30;;;;;;;;;;4882053;29;20116;-90
2024/01/16 10:51:17;;;;;;;6.43;5.72;;;;;;;;;;4836302;29;20085;-91
2024/01/16 10:54:19;;;;;;;;;;;;;;;;;;;;;
2024/01/16 11:00:04;;;;;;;5.80;5.20;;;;;;;;;;4845126;29;20053;-95
2024/01/16 11:06:00;;;;;;;6.80;5.47;;;;;;;;;;4844532;29;20046;-96
2024/01/16 11:09:04;;;;;;;5.47;4.97;;;;;;;;;;4822083;29;20050;-95
2024/01/16 11:11:30;;;;;;;;;;;;;;;;;;4810401;29;20131;-93
2024/01/16 11:14:18;;;;;;;3.45;2.25;;;;;;;;;;4809970;29;19924;-95
2024/01/16 11:16:52;;;;;;;5.93;3.17;;;;;;;;;;4809967;29;20042;-96
2024/01/16 11:19:36;;;;;;;3.67;3.38;;;;;;;;;;5264868;23;20049;-93
2024/01/16 11:25:16;;;;;;;5.72;3.20;;;;;;;;;;4882199;29;20117;-96
2024/01/16 11:28:07;;;;;;;;;;;;;;;;;;;;;
2024/01/16 11:31:10;;;;;;;;;;;;;;;;;;;;;
2024/01/16 11:33:49;;;;;;;;;;;;;;;;;;;;;
2024/01/16 11:36:42;;;;;;;5.40;2.30;;;;;;;;;;4882303;29;20037;-95
2024/01/16 11:39:29;;;;;;;;;;;;;;;;;;;;;
2024/01/16 11:41:56;;;;;;;3.83;1.88;;;;;;;;;;4880925;29;20037;-95
2024/01/16 11:44:42;;;;;;;3.58;2.20;;;;;;;;;;4863998;29;20032;-93
2024/01/16 11:50:34;;;;;;;8.05;3.20;;;;;;;;;;4874085;29;20395;-92
2024/01/16 11:56:50;;;;;;;;;;;;;;;;;;;;;
2024/01/16 11:59:38;;;;;;;5.18;2.30;;;;;;;;;;4880954;29;20029;-91
2024/01/16 12:02:09;;;;;;;4.13;2.72;;;;;;;;;;4865505;29;20025;-92
2024/01/16 12:13:38;;;;;;;3.50;2.00;;;;;;;;;;4964221;23;20037;-92
2024/01/16 12:16:24;;;;;;;3.88;2.55;;;;;;;;;;4875527;29;20033;-92
2024/01/16 12:18:50;;;;;;;4.22;2.65;;;;;;;;;;4864252;29;20040;-92
2024/01/16 12:21:16;;;;;;;3.45;2.70;;;;;;;;;;4864134;29;20077;-89
2024/01/16 12:23:49;;;;;;;3.22;1.90;;;;;;;;;;4864682;29;20029;-92
2024/01/16 12:26:25;;;;;;;4.20;2.33;;;;;;;;;;4865287;29;20541;-94
2024/01/16 12:29:00;;;;;;;3.88;2.53;;;;;;;;;;4864441;29;20045;-94
2024/01/16 12:31:27;;;;;;;3.53;2.30;;;;;;;;;;4863969;29;20033;-89
2024/01/16 12:34:05;;;;;;;3.33;2.40;;;;;;;;;;4864622;29;20123;-93
2024/01/16 12:36:38;;;;;;;3.05;2.08;;;;;;;;;;4866088;29;20036;-94
2024/01/16 12:39:05;;;;;;;5.80;2.17;;;;;;;;;;4881933;29;20088;-94
2024/01/16 12:42:05;;;;;;;3.63;2.03;;;;;;;;;;4873891;29;20116;-92
2024/01/16 12:44:40;;;;;;;4.68;2.53;;;;;;;;;;4878088;29;20051;-94
2024/01/16 12:47:07;;;;;;;5.70;1.80;;;;;;;;;;4882222;29;20029;-94
2024/01/16 12:53:19;;;;;;;5.85;2.63;;;;;;;;;;4899944;29;20059;-94
2024/01/16 12:56:00;;;;;;;2.92;1.65;;;;;;;;;;4790316;29;20387;-94
2024/01/16 12:58:34;;;;;;;2.90;1.85;;;;;;;;;;4880501;29;20033;-91
2024/01/16 13:01:20;;;;;;;3.78;2.35;;;;;;;;;;4886640;29;20048;-94
2024/01/16 13:03:53;;;;;;;7.30;2.25;;;;;;;;;;4888901;29;20057;-95
2024/01/16 13:17:41;;;;;;;5.82;2.17;;;;;;;;;;4885572;23;20132;-95
2024/01/16 13:20:24;;;;;;;3.95;2.70;;;;;;;;;;4868607;29;20496;-95
2024/01/16 13:25:32;;;;;;;5.80;2.40;;;;;;;;;;4969450;23;20514;-94
2024/01/16 13:41:56;;;;;;;3.43;2.33;;;;;;;;;;4808677;29;20100;-95
2024/01/16 13:44:44;;;;;;;;;;;;;;;;;;;;;
2024/01/16 13:51:04;;;;;;;3.10;2.80;;;;;;;;;;4758122;30;20051;-94
2024/01/16 13:59:37;;;;;;;3.90;3.53;;;;;;;;;;4861994;23;20122;-89
2024/01/16 14:05:25;;;;;;;6.70;4.38;;;;;;;;;;4883670;29;20088;-95
2024/01/16 14:08:00;;;;;;;4.82;3.58;;;;;;;;;;4862189;29;20042;-95
2024/01/16 14:13:49;;;;;;;5.57;3.88;;;;;;;;;;4789066;29;20055;-95
2024/01/16 14:16:21;;;;;;;5.25;3.78;;;;;;;;;;4796171;29;20092;-93
2024/01/16 14:18:50;;;;;;;5.68;4.28;;;;;;;;;;4874983;29;20029;-92
2024/01/16 14:21:47;;;;;;;4.57;3.67;;;;;;;;;;4864002;29;20038;-94
2024/01/16 14:24:37;;;;;;;4.68;3.47;;;;;;;;;;4869584;29;20041;-91
2024/01/16 14:29:57;;;;;;;6.32;4.38;;;;;;;;;;4846295;29;20037;-95
2024/01/16 14:33:08;;;;;;;9.00;7.40;;;;;;;;;;4863063;29;20036;-94
2024/01/16 14:35:42;;;;;;;8.35;3.53;;;;;;;;;;4755672;30;20035;-94
2024/01/16 14:38:32;;;;;;;5.20;2.90;;;;;;;;;;4756454;30;20133;-95
2024/01/16 14:41:12;;;;;;;5.38;3.40;;;;;;;;;;4771377;30;20074;-95
2024/01/16 14:43:51;;;;;;;;;;;;;;;;;;;;;
2024/01/16 14:52:59;;;;;;;3.47;2.78;;;;;;;;;;4883086;29;20630;-92
2024/01/16 14:55:26;;;;;;;5.03;3.45;;;;;;;;;;4878024;29;20040;-93
2024/01/16 14:57:59;;;;;;;8.48;4.05;;;;;;;;;;4884403;29;20107;-95
2024/01/16 15:00:26;;;;;;;6.90;3.40;;;;;;;;;;4884587;29;20041;-93
2024/01/16 15:03:08;;;;;;;5.05;3.95;;;;;;;;;;4883992;29;20043;-93
2024/01/16 15:05:37;;;;;;;6.60;5.13;;;;;;;;;;4884274;29;20032;-96
2024/01/16 15:08:07;;;;;;;5.57;3.85;;;;;;;;;;4876961;29;20052;-91
2024/01/16 15:11:30;;;;;;;5.45;3.65;;;;;;;;;;4846953;29;20101;-96
2024/01/16 15:16:54;;;;;;;7.75;4.47;;;;;;;;;;4950697;23;20514;-93
2024/01/16 15:19:30;;;;;;;7.68;3.67;;;;;;;;;;4866492;29;20499;-96
2024/01/16 15:25:24;;;;;;;5.47;2.97;;;;;;;;;;4882097;29;20071;-94
2024/01/16 15:28:17;;;;;;;8.57;3.47;;;;;;;;;;4880242;29;20037;-95
2024/01/16 15:30:49;;;;;;;7.63;3.53;;;;;;;;;;4879482;29;20037;-93
2024/01/16 15:33:36;;;;;;;5.90;3.90;;;;;;;;;;4855500;29;20042;-95
2024/01/16 15:39:15;;;;;;;8.30;4.22;;;;;;;;;;4861227;29;20216;-93
2024/01/16 15:41:54;;;;;;;;;;;;;;;;;;;;;
2024/01/16 15:44:21;;;;;;;9.07;4.75;;;;;;;;;;4828001;29;20043;-95
2024/01/16 15:46:56;;;;;;;10.63;5.57;;;;;;;;;;4814382;29;20133;-92
2024/01/16 15:49:29;;;;;;;10.88;6.00;;;;;;;;;;4908087;23;20057;-93
2024/01/16 15:52:08;;;;;;;13.75;5.15;;;;;;;;;;4864169;29;20037;-93
2024/01/16 15:54:37;;;;;;;6.93;4.68;;;;;;;;;;4863851;29;20053;-93
2024/01/16 15:57:36;;;;;;;6.40;4.82;;;;;;;;;;4864548;29;20025;-94
2024/01/16 16:00:24;;;;;;;9.68;3.38;;;;;;;;;;4854161;29;20041;-94
2024/01/16 16:02:59;;;;;;;7.60;3.45;;;;;;;;;;4864899;29;20033;-95
2024/01/16 16:06:13;;;;;;;6.63;3.95;;;;;;;;;;4864331;29;20064;-92
2024/01/16 16:08:45;;;;;;;5.43;3.03;;;;;;;;;;4881400;29;20036;-95
2024/01/16 16:11:42;;;;;;;;;;;;;;;;;;;;;
2024/01/16 16:14:14;;;;;;;9.88;5.38;;;;;;;;;;4767770;30;20158;-96
2024/01/16 16:25:58;;;;;;;15.23;7.13;;;;;;;;;;4757439;30;20541;-92
2024/01/16 16:28:51;;;;;;;;;;;;;;;;;;;;;
2024/01/16 16:34:47;;;;;;;17.65;7.75;;;;;;;;;;4702261;30;20182;-96
2024/01/16 16:37:21;;;;;;;12.60;5.38;;;;;;;;;;4700134;30;20049;-94
2024/01/16 16:45:39;;;;;;;14.45;5.90;;;;;;;;;;4778665;30;20047;-96
2024/01/16 16:48:28;;;;;;;16.30;7.65;;;;;;;;;;4861405;29;20227;-95
2024/01/16 17:00:01;;;;;;;27.52;13.35;;;;;;;;;;4896391;29;20499;-94
2024/01/16 17:09:01;;;;;;;28.88;12.88;;;;;;;;;;4898462;29;20043;-91
2024/01/16 17:11:33;;;;;;;28.17;13.38;;;;;;;;;;4894476;29;20071;-92
2024/01/16 17:14:03;;;;;;;25.13;14.43;;;;;;;;;;4887710;29;20052;-91
2024/01/16 17:16:35;;;;;;;14.45;7.07;;;;;;;;;;4867391;29;20040;-94
2024/01/16 17:19:03;;;;;;;12.23;6.97;;;;;;;;;;4868062;29;20380;-95
2024/01/16 17:25:08;;;;;;;6.80;5.22;;;;;;;;;;4813058;29;20098;-95
2024/01/16 17:34:43;;;;;;;9.50;5.43;;;;;;;;;;4775408;30;20050;-95
2024/01/16 17:37:12;;;;;;;7.80;5.53;;;;;;;;;;4756898;30;20143;-95
2024/01/16 17:42:51;;;;;;;16.13;9.40;;;;;;;;;;4791113;30;20043;-93
2024/01/16 17:45:23;;;;;;;20.30;11.00;;;;;;;;;;4775401;30;20483;-93